createdAt,value
2023-01-13T00:01:27.827Z,89.50
2023-01-13T00:03:57.005Z,80.00
2023-01-13T00:06:26.939Z,81.67
2023-01-13T00:08:57.827Z,81.67
2023-01-13T00:11:27.737Z,86.33
2023-01-13T00:13:57.147Z,87.67
2023-01-13T00:16:25.984Z,85.00
2023-01-13T00:18:54.595Z,91.25
2023-01-13T00:21:24.999Z,88.25
2023-01-13T00:23:55.122Z,90.75
2023-01-13T00:26:27.063Z,89.50
2023-01-13T00:28:58.935Z,89.00
2023-01-13T00:31:29.973Z,87.33
2023-01-13T00:34:00.160Z,81.33
2023-01-13T00:36:30.772Z,85.33
2023-01-13T00:39:00.225Z,89.00
2023-01-13T00:41:50.211Z,86.00
2023-01-13T00:44:18.239Z,86.67
2023-01-13T00:46:46.886Z,80.33
2023-01-13T00:49:16.110Z,79.00
2023-01-13T00:51:44.574Z,86.50
2023-01-13T00:54:13.365Z,82.67
2023-01-13T00:56:43.285Z,87.33
2023-01-13T00:59:13.591Z,84.00
2023-01-13T01:01:42.494Z,80.00
2023-01-13T01:04:12.204Z,83.00
2023-01-13T01:06:40.988Z,87.00
2023-01-13T01:09:14.072Z,86.50
2023-01-13T01:11:44.853Z,91.00
2023-01-13T01:14:15.423Z,92.00
2023-01-13T01:16:43.975Z,94.25
2023-01-13T01:19:12.888Z,94.25
2023-01-13T01:21:41.901Z,88.75
2023-01-13T01:24:11.408Z,85.50
2023-01-13T01:26:41.904Z,90.00
2023-01-13T01:29:15.210Z,87.00
2023-01-13T01:31:44.987Z,88.00
2023-01-13T01:34:13.928Z,89.50
2023-01-13T01:36:42.699Z,93.00
2023-01-13T01:39:12.007Z,95.25
2023-01-13T01:42:00.451Z,88.50
2023-01-13T01:44:53.804Z,93.00
2023-01-13T01:47:23.752Z,88.00
2023-01-13T01:49:52.980Z,84.75
2023-01-13T01:52:27.075Z,90.00
2023-01-13T01:55:00.873Z,86.75
2023-01-13T01:57:33.847Z,93.00
2023-01-13T02:00:05.426Z,91.75
2023-01-13T02:02:41.587Z,86.75
2023-01-13T02:05:10.848Z,93.00
2023-01-13T02:07:42.016Z,90.75
2023-01-13T02:10:13.601Z,89.25
2023-01-13T02:12:45.399Z,89.75
2023-01-13T02:15:18.999Z,86.67
2023-01-13T02:18:20.509Z,90.75
2023-01-13T02:21:13.748Z,85.75
2023-01-13T02:24:47.805Z,87.50
2023-01-13T02:27:41.900Z,83.00
2023-01-13T02:30:38.979Z,87.67
2023-01-13T02:33:20.461Z,87.00
2023-01-13T02:35:53.475Z,80.00
2023-01-13T02:38:28.815Z,82.33
2023-01-13T02:41:21.841Z,82.00
2023-01-13T02:44:08.345Z,80.67
2023-01-13T02:46:45.648Z,81.67
2023-01-13T02:49:21.298Z,81.67
2023-01-13T02:51:52.539Z,79.25
2023-01-13T02:54:25.699Z,82.33
2023-01-13T02:56:56.922Z,77.67
2023-01-13T02:59:27.945Z,78.00
2023-01-13T03:01:58.567Z,80.33
2023-01-13T03:04:51.527Z,80.67
2023-01-13T03:07:55.748Z,78.50
2023-01-13T03:10:39.083Z,81.67
2023-01-13T03:13:18.614Z,78.00
2023-01-13T03:16:01.427Z,79.00
2023-01-13T03:18:41.829Z,76.00
2023-01-13T03:21:21.039Z,69.00
2023-01-13T03:23:54.111Z,75.00
2023-01-13T03:26:32.042Z,83.67
2023-01-13T03:29:07.873Z,74.33
2023-01-13T03:31:44.498Z,78.33
2023-01-13T03:34:18.478Z,73.33
2023-01-13T03:36:51.449Z,72.67
2023-01-13T03:39:28.262Z,70.50
2023-01-13T03:42:01.613Z,72.25
2023-01-13T03:44:34.090Z,72.50
2023-01-13T03:47:11.400Z,69.00
2023-01-13T03:49:48.293Z,68.75
2023-01-13T03:52:24.250Z,69.00
2023-01-13T03:54:56.781Z,66.50
2023-01-13T03:57:30.637Z,66.75
2023-01-13T04:00:04.071Z,67.00
2023-01-13T04:02:54.960Z,73.25
2023-01-13T04:05:26.227Z,64.50
2023-01-13T04:08:02.220Z,65.50
2023-01-13T04:10:36.725Z,65.25
2023-01-13T04:13:09.276Z,67.00
2023-01-13T04:15:40.325Z,69.75
2023-01-13T04:18:15.835Z,69.00
2023-01-13T04:20:48.417Z,68.75
2023-01-13T04:23:18.265Z,70.25
2023-01-13T04:25:47.769Z,64.50
2023-01-13T04:28:17.844Z,69.25
2023-01-13T04:30:47.362Z,66.50
2023-01-13T04:33:17.945Z,68.00
2023-01-13T04:35:48.677Z,67.00
2023-01-13T04:38:20.596Z,67.25
2023-01-13T04:40:49.854Z,71.25
2023-01-13T04:43:18.999Z,67.75
2023-01-13T04:45:47.715Z,66.75
2023-01-13T04:48:16.586Z,75.00
2023-01-13T04:50:45.075Z,80.00
2023-01-13T04:53:15.409Z,81.00
2023-01-13T04:55:45.195Z,74.50
2023-01-13T04:58:14.013Z,71.00
2023-01-13T05:00:43.126Z,71.00
2023-01-13T05:03:12.104Z,72.75
2023-01-13T05:05:40.667Z,66.75
2023-01-13T05:08:10.164Z,67.25
2023-01-13T05:10:40.180Z,65.50
2023-01-13T05:13:27.697Z,80.33
2023-01-13T05:16:13.975Z,74.50
2023-01-13T05:18:43.022Z,72.25
2023-01-13T05:21:31.567Z,60.50
2023-01-13T05:24:17.724Z,85.50
2023-01-13T05:26:47.780Z,90.00
2023-01-13T05:29:16.687Z,68.25
2023-01-13T05:31:45.239Z,89.75
2023-01-13T05:34:14.457Z,80.33
2023-01-13T05:36:43.059Z,65.50
2023-01-13T05:39:12.088Z,74.25
2023-01-13T05:41:58.492Z,70.25
2023-01-13T05:44:28.836Z,70.50
2023-01-13T05:46:57.644Z,63.25
2023-01-13T05:49:26.515Z,61.50
2023-01-13T05:51:55.098Z,69.50
2023-01-13T05:54:23.899Z,54.75
2023-01-13T05:56:52.458Z,63.75
2023-01-13T05:59:21.402Z,65.25
2023-01-13T06:01:51.305Z,64.25
2023-01-13T06:04:20.255Z,61.25
2023-01-13T06:06:48.983Z,76.67
2023-01-13T06:09:17.965Z,69.25
2023-01-13T06:11:46.565Z,68.50
2023-01-13T06:14:15.856Z,72.75
2023-01-13T06:16:45.947Z,59.50
2023-01-13T06:19:16.436Z,64.00
2023-01-13T06:21:45.323Z,71.00
2023-01-13T06:24:14.246Z,80.33
2023-01-13T06:26:42.859Z,78.00
2023-01-13T06:29:15.027Z,75.33
2023-01-13T06:31:44.449Z,73.33
2023-01-13T06:34:14.785Z,75.67
2023-01-13T06:36:49.865Z,74.67
2023-01-13T06:39:23.647Z,73.25
2023-01-13T06:42:12.983Z,74.67
2023-01-13T06:44:42.125Z,63.25
2023-01-13T06:47:11.153Z,57.50
2023-01-13T06:49:40.102Z,57.25
2023-01-13T06:52:10.070Z,56.00
2023-01-13T06:54:39.063Z,52.00
2023-01-13T06:57:07.703Z,58.75
2023-01-13T06:59:36.684Z,59.00
2023-01-13T07:02:05.393Z,65.50
2023-01-13T07:04:34.325Z,65.25
2023-01-13T07:07:02.898Z,66.50
2023-01-13T07:09:33.219Z,67.00
2023-01-13T07:12:01.812Z,47.25
2023-01-13T07:14:48.315Z,46.00
2023-01-13T07:17:25.101Z,47.50
2023-01-13T07:19:54.721Z,45.75
2023-01-13T07:22:24.544Z,43.00
2023-01-13T07:24:54.849Z,28.25
2023-01-13T07:27:23.382Z,39.25
2023-01-13T07:29:52.203Z,32.50
2023-01-13T07:32:20.723Z,34.75
2023-01-13T07:34:49.588Z,24.60
2023-01-13T07:37:18.317Z,22.40
2023-01-13T07:39:47.375Z,29.20
2023-01-13T07:42:31.127Z,26.00
2023-01-13T07:45:00.313Z,28.80
2023-01-13T07:47:29.131Z,19.60
2023-01-13T07:49:57.996Z,24.60
2023-01-13T07:52:26.486Z,25.60
2023-01-13T07:54:55.258Z,28.20
2023-01-13T07:57:25.326Z,22.60
2023-01-13T07:59:54.239Z,30.40
2023-01-13T08:02:23.137Z,20.80
2023-01-13T08:04:52.085Z,33.40
2023-01-13T08:07:20.757Z,23.80
2023-01-13T08:09:49.899Z,22.60
2023-01-13T08:12:35.951Z,25.00
2023-01-13T08:15:10.110Z,24.80
2023-01-13T08:17:38.714Z,30.20
2023-01-13T08:20:08.912Z,31.00
2023-01-13T08:22:38.366Z,30.60
2023-01-13T08:25:08.109Z,33.80
2023-01-13T08:27:36.663Z,26.00
2023-01-13T08:30:08.494Z,29.60
2023-01-13T08:32:37.161Z,32.40
2023-01-13T08:35:06.771Z,28.40
2023-01-13T08:37:35.393Z,29.60
2023-01-13T08:40:04.608Z,29.25
2023-01-13T08:42:33.455Z,33.20
2023-01-13T08:45:02.291Z,29.00
2023-01-13T08:47:32.379Z,33.00
2023-01-13T08:50:01.296Z,31.00
2023-01-13T08:52:30.798Z,27.00
2023-01-13T08:54:59.649Z,42.75
2023-01-13T08:57:28.790Z,39.25
2023-01-13T08:59:57.863Z,35.75
2023-01-13T09:02:27.429Z,29.75
2023-01-13T09:04:57.791Z,37.25
2023-01-13T09:07:26.418Z,39.00
2023-01-13T09:09:56.875Z,32.00
2023-01-13T09:12:43.109Z,29.20
2023-01-13T09:15:12.553Z,39.00
2023-01-13T09:17:41.342Z,33.50
2023-01-13T09:20:13.805Z,32.25
2023-01-13T09:22:42.401Z,35.80
2023-01-13T09:25:12.607Z,31.25
2023-01-13T09:27:41.171Z,41.75
2023-01-13T09:30:11.533Z,36.50
2023-01-13T09:32:40.199Z,41.00
2023-01-13T09:35:10.326Z,33.50
2023-01-13T09:37:41.258Z,32.75
2023-01-13T09:40:32.169Z,46.25
2023-01-13T09:43:24.389Z,39.50
2023-01-13T09:46:01.619Z,40.50
2023-01-13T09:48:33.664Z,38.75
2023-01-13T09:51:14.701Z,40.50
2023-01-13T09:53:51.507Z,42.75
2023-01-13T09:56:20.319Z,41.75
2023-01-13T09:58:49.337Z,43.50
2023-01-13T10:01:29.452Z,54.25
2023-01-13T10:04:03.758Z,45.25
2023-01-13T10:06:38.804Z,53.50
2023-01-13T10:09:07.618Z,44.25
2023-01-13T10:12:01.438Z,39.25
2023-01-13T10:14:36.132Z,49.00
2023-01-13T10:17:13.350Z,49.75
2023-01-13T10:19:45.675Z,48.25
2023-01-13T10:22:35.861Z,38.00
2023-01-13T10:25:18.463Z,54.00
2023-01-13T10:27:50.229Z,52.25
2023-01-13T10:30:22.444Z,50.25
2023-01-13T10:32:55.979Z,54.00
2023-01-13T10:35:54.495Z,48.00
2023-01-13T10:38:27.786Z,45.25
2023-01-13T10:40:58.142Z,48.50
2023-01-13T10:43:28.044Z,43.75
2023-01-13T10:46:03.277Z,49.25
2023-01-13T10:48:41.132Z,50.75
2023-01-13T10:51:21.142Z,47.75
2023-01-13T10:53:55.997Z,47.75
2023-01-13T10:56:27.302Z,46.25
2023-01-13T10:59:14.123Z,42.50
2023-01-13T11:01:44.490Z,48.75
2023-01-13T11:04:29.620Z,46.25
2023-01-13T11:06:59.055Z,48.50
2023-01-13T11:09:31.702Z,47.25
2023-01-13T11:12:03.095Z,42.75
2023-01-13T11:14:42.590Z,42.25
2023-01-13T11:17:23.190Z,47.00
2023-01-13T11:19:58.613Z,37.50
2023-01-13T11:22:33.328Z,46.00
2023-01-13T11:25:05.927Z,46.50
2023-01-13T11:27:43.724Z,47.50
2023-01-13T11:30:23.253Z,46.00
2023-01-13T11:33:26.628Z,43.75
2023-01-13T11:36:04.533Z,45.75
2023-01-13T11:38:39.125Z,49.00
2023-01-13T11:41:19.082Z,45.00
2023-01-13T11:43:55.285Z,46.00
2023-01-13T11:46:28.684Z,50.75
2023-01-13T11:48:58.007Z,53.25
2023-01-13T11:51:35.660Z,54.00
2023-01-13T11:54:46.999Z,53.25
2023-01-13T11:57:40.644Z,48.50
2023-01-13T12:00:28.133Z,57.00
2023-01-13T12:03:11.710Z,45.00
2023-01-13T12:05:44.419Z,54.75
2023-01-13T12:08:19.837Z,56.00
2023-01-13T12:11:02.653Z,50.00
2023-01-13T12:13:45.796Z,48.50
2023-01-13T12:16:20.270Z,45.00
2023-01-13T12:19:07.657Z,52.00
2023-01-13T12:21:40.053Z,55.00
2023-01-13T12:24:18.306Z,54.25
2023-01-13T12:26:55.636Z,49.75
2023-01-13T12:29:32.075Z,43.00
2023-01-13T12:32:03.171Z,52.25
2023-01-13T12:34:41.102Z,52.50
2023-01-13T12:37:18.228Z,45.25
2023-01-13T12:40:00.721Z,44.25
2023-01-13T12:42:56.480Z,42.50
2023-01-13T12:45:31.319Z,48.75
2023-01-13T12:48:01.069Z,48.25
2023-01-13T12:50:42.404Z,43.50
2023-01-13T12:53:34.698Z,54.75
2023-01-13T12:56:42.222Z,48.00
2023-01-13T12:59:49.037Z,54.25
2023-01-13T13:03:07.451Z,52.75
2023-01-13T13:05:59.447Z,63.50
2023-01-13T13:08:45.593Z,58.75
2023-01-13T13:11:41.677Z,61.50
2023-01-13T13:14:13.847Z,57.50
2023-01-13T13:16:52.293Z,58.50
2023-01-13T13:19:50.970Z,58.25
2023-01-13T13:22:40.130Z,66.75
2023-01-13T13:25:28.349Z,65.75
2023-01-13T13:28:17.544Z,60.75
2023-01-13T13:30:57.452Z,58.50
2023-01-13T13:33:48.969Z,61.50
2023-01-13T13:36:40.538Z,64.25
2023-01-13T13:39:40.002Z,67.50
2023-01-13T13:42:32.444Z,74.75
2023-01-13T13:45:21.249Z,29.25
2023-01-13T13:47:50.549Z,68.00
2023-01-13T13:50:21.627Z,74.50
2023-01-13T13:52:57.634Z,75.50
2023-01-13T13:55:27.973Z,75.00
2023-01-13T13:57:58.562Z,76.33
2023-01-13T14:00:30.430Z,74.33
2023-01-13T14:03:01.649Z,74.00
2023-01-13T14:05:32.757Z,71.25
2023-01-13T14:08:05.427Z,64.75
2023-01-13T14:10:36.427Z,64.00
2023-01-13T14:13:15.621Z,65.25
2023-01-13T14:15:45.415Z,70.00
2023-01-13T14:18:17.913Z,65.50
2023-01-13T14:20:54.194Z,68.00
2023-01-13T14:23:28.634Z,65.00
2023-01-13T14:26:04.711Z,66.75
2023-01-13T14:28:38.022Z,67.75
2023-01-13T14:31:08.494Z,66.50
2023-01-13T14:33:40.926Z,66.25
2023-01-13T14:36:16.488Z,66.50
2023-01-13T14:38:48.468Z,65.25
2023-01-13T14:41:25.240Z,65.75
2023-01-13T14:43:59.324Z,63.00
2023-01-13T14:46:38.311Z,60.50
2023-01-13T14:49:16.088Z,66.25
2023-01-13T14:51:44.883Z,64.00
2023-01-13T14:54:46.110Z,63.75
2023-01-13T14:57:17.692Z,65.00
2023-01-13T14:59:51.931Z,65.00
2023-01-13T15:02:40.625Z,67.25
2023-01-13T15:05:31.991Z,66.25
2023-01-13T15:08:03.545Z,69.50
2023-01-13T15:10:38.115Z,65.75
2023-01-13T15:13:08.294Z,68.25
2023-01-13T15:15:39.226Z,65.00
2023-01-13T15:18:14.266Z,67.75
2023-01-13T15:20:43.716Z,68.25
2023-01-13T15:23:12.976Z,64.25
2023-01-13T15:25:45.533Z,71.25
2023-01-13T15:28:19.749Z,73.75
2023-01-13T15:30:49.627Z,71.25
2023-01-13T15:33:18.721Z,81.75
2023-01-13T15:35:50.262Z,75.00
2023-01-13T15:38:21.508Z,74.75
2023-01-13T15:40:53.544Z,73.50
2023-01-13T15:43:41.585Z,71.00
2023-01-13T15:46:32.158Z,72.25
2023-01-13T15:49:08.807Z,69.50
2023-01-13T15:51:38.930Z,69.50
2023-01-13T15:54:08.224Z,74.50
2023-01-13T15:56:42.092Z,71.50
2023-01-13T15:59:18.611Z,67.25
2023-01-13T16:01:47.713Z,73.00
2023-01-13T16:04:16.739Z,68.25
2023-01-13T16:06:47.611Z,73.25
2023-01-13T16:09:17.760Z,72.00
2023-01-13T16:11:48.095Z,66.25
2023-01-13T16:14:17.027Z,72.00
2023-01-13T16:16:46.137Z,69.25
2023-01-13T16:19:14.730Z,70.25
2023-01-13T16:21:45.373Z,64.75
2023-01-13T16:24:14.033Z,67.00
2023-01-13T16:26:42.993Z,72.25
2023-01-13T16:29:13.666Z,65.75
2023-01-13T16:31:42.663Z,70.50
2023-01-13T16:34:11.219Z,70.25
2023-01-13T16:36:40.203Z,75.50
2023-01-13T16:39:21.456Z,69.50
2023-01-13T16:41:50.451Z,71.00
2023-01-13T16:44:20.549Z,72.25
2023-01-13T16:46:50.028Z,73.00
2023-01-13T16:49:18.801Z,67.75
2023-01-13T16:51:47.760Z,72.00
2023-01-13T16:54:16.326Z,66.50
2023-01-13T16:56:45.425Z,73.50
2023-01-13T16:59:15.291Z,82.00
2023-01-13T17:01:45.981Z,74.75
2023-01-13T17:04:17.699Z,78.00
2023-01-13T17:06:54.328Z,67.50
2023-01-13T17:09:25.048Z,67.00
2023-01-13T17:11:54.077Z,62.50
2023-01-13T17:14:23.633Z,65.75
2023-01-13T17:16:58.449Z,72.75
2023-01-13T17:19:27.352Z,70.75
2023-01-13T17:21:56.375Z,67.50
2023-01-13T17:24:25.958Z,65.50
2023-01-13T17:26:54.844Z,69.75
2023-01-13T17:29:25.865Z,63.00
2023-01-13T17:31:56.472Z,67.50
2023-01-13T17:34:25.144Z,71.25
2023-01-13T17:36:54.180Z,75.50
2023-01-13T17:39:24.685Z,71.25
2023-01-13T17:41:55.948Z,69.75
2023-01-13T17:44:24.646Z,73.25
2023-01-13T17:46:53.657Z,78.25
2023-01-13T17:49:23.850Z,75.50
2023-01-13T17:51:53.119Z,73.00
2023-01-13T17:54:22.651Z,70.00
2023-01-13T17:56:51.604Z,80.75
2023-01-13T17:59:22.536Z,63.75
2023-01-13T18:01:51.773Z,75.75
2023-01-13T18:04:22.581Z,77.00
2023-01-13T18:06:53.661Z,73.75
2023-01-13T18:09:23.407Z,73.00
2023-01-13T18:11:52.300Z,78.25
2023-01-13T18:14:22.549Z,73.00
2023-01-13T18:16:51.758Z,74.00
2023-01-13T18:19:38.055Z,70.75
2023-01-13T18:22:25.710Z,67.25
2023-01-13T18:25:21.832Z,70.00
2023-01-13T18:27:51.021Z,66.00
2023-01-13T18:30:20.525Z,68.50
2023-01-13T18:32:49.429Z,71.00
2023-01-13T18:35:18.125Z,67.00
2023-01-13T18:37:48.576Z,69.25
2023-01-13T18:40:17.412Z,68.50
2023-01-13T18:42:59.265Z,72.25
2023-01-13T18:45:30.500Z,68.50
2023-01-13T18:48:01.707Z,63.00
2023-01-13T18:50:31.195Z,65.00
2023-01-13T18:53:01.810Z,62.25
2023-01-13T18:55:30.688Z,61.25
2023-01-13T18:57:59.600Z,65.25
2023-01-13T19:00:29.142Z,64.50
2023-01-13T19:05:35.733Z,66.75
2023-01-13T19:08:06.670Z,64.50
2023-01-13T19:10:36.628Z,59.25
2023-01-13T19:13:05.790Z,63.75
2023-01-13T19:15:37.469Z,66.50
2023-01-13T19:18:06.691Z,63.50
2023-01-13T19:20:35.453Z,61.00
2023-01-13T19:23:04.549Z,63.00
2023-01-13T19:25:34.459Z,66.25
2023-01-13T19:28:03.327Z,63.00
2023-01-13T19:30:32.075Z,61.75
2023-01-13T19:33:01.446Z,58.25
2023-01-13T19:35:30.489Z,62.00
2023-01-13T19:37:59.353Z,66.50
2023-01-13T19:40:28.137Z,62.25
2023-01-13T19:43:15.820Z,66.00
2023-01-13T19:45:44.995Z,64.00
2023-01-13T19:48:16.264Z,65.25
2023-01-13T19:50:44.889Z,61.50
2023-01-13T19:53:18.002Z,68.00
2023-01-13T19:55:48.435Z,60.00
2023-01-13T19:58:20.010Z,55.00
2023-01-13T20:00:48.751Z,62.50
2023-01-13T20:03:19.316Z,66.00
2023-01-13T20:05:48.479Z,58.00
2023-01-13T20:08:17.756Z,53.00
2023-01-13T20:10:47.444Z,55.25
2023-01-13T20:13:18.099Z,55.50
2023-01-13T20:15:46.820Z,55.75
2023-01-13T20:18:15.798Z,57.25
2023-01-13T20:20:44.302Z,57.25
2023-01-13T20:23:13.126Z,46.00
2023-01-13T20:25:43.471Z,57.50
2023-01-13T20:28:12.326Z,54.00
2023-01-13T20:30:42.544Z,60.50
2023-01-13T20:33:11.581Z,54.25
2023-01-13T20:35:40.374Z,48.00
2023-01-13T20:38:09.516Z,55.50
2023-01-13T20:40:38.131Z,42.50
2023-01-13T20:43:06.371Z,56.25
2023-01-13T20:45:35.201Z,57.75
2023-01-13T20:48:05.718Z,61.50
2023-01-13T20:50:34.282Z,50.50
2023-01-13T20:53:03.193Z,55.25
2023-01-13T20:55:31.995Z,57.00
2023-01-13T20:58:00.878Z,58.00
2023-01-13T21:00:29.841Z,58.50
2023-01-13T21:02:59.955Z,59.00
2023-01-13T21:05:29.961Z,53.50
2023-01-13T21:07:58.853Z,58.00
2023-01-13T21:10:27.385Z,55.50
2023-01-13T21:13:13.999Z,46.75
2023-01-13T21:15:48.066Z,46.50
2023-01-13T21:18:30.776Z,59.50
2023-01-13T21:21:12.470Z,54.25
2023-01-13T21:23:42.412Z,55.25
2023-01-13T21:26:12.324Z,50.50
2023-01-13T21:28:41.170Z,60.00
2023-01-13T21:31:10.633Z,55.25
2023-01-13T21:33:40.060Z,55.25
2023-01-13T21:36:13.284Z,59.00
2023-01-13T21:38:42.623Z,52.00
2023-01-13T21:41:14.418Z,48.25
2023-01-13T21:44:01.474Z,54.00
2023-01-13T21:46:47.468Z,17.75
2023-01-13T21:49:16.320Z,59.75
2023-01-13T21:51:46.375Z,53.50
2023-01-13T21:54:15.302Z,54.50
2023-01-13T21:56:43.837Z,64.25
2023-01-13T21:59:12.708Z,56.25
2023-01-13T22:02:02.874Z,54.75
2023-01-13T22:04:30.251Z,45.00
2023-01-13T22:07:04.565Z,49.50
2023-01-13T22:09:33.460Z,55.75
2023-01-13T22:12:02.491Z,43.25
2023-01-13T22:14:31.479Z,43.50
2023-01-13T22:17:01.247Z,49.75
2023-01-13T22:19:30.578Z,44.00
2023-01-13T22:22:00.649Z,59.00
2023-01-13T22:24:30.257Z,46.75
2023-01-13T22:26:58.857Z,47.25
2023-01-13T22:29:27.966Z,47.50
2023-01-13T22:31:56.689Z,45.50
2023-01-13T22:34:25.602Z,35.25
2023-01-13T22:36:54.335Z,50.00
2023-01-13T22:39:24.625Z,45.25
2023-01-13T22:41:53.465Z,48.50
2023-01-13T22:44:23.059Z,47.75
2023-01-13T22:46:51.644Z,52.50
2023-01-13T22:49:21.462Z,32.00
2023-01-13T22:51:50.111Z,49.25
2023-01-13T22:54:19.822Z,44.50
2023-01-13T22:56:49.865Z,38.50
2023-01-13T22:59:18.700Z,44.50
2023-01-13T23:01:47.588Z,48.00
2023-01-13T23:04:16.689Z,30.75
2023-01-13T23:06:45.410Z,37.50
2023-01-13T23:09:14.306Z,32.25
2023-01-13T23:11:43.195Z,38.00
2023-01-13T23:14:14.058Z,35.00
2023-01-13T23:16:44.000Z,43.75
2023-01-13T23:19:15.217Z,35.75
2023-01-13T23:21:44.188Z,26.50
2023-01-13T23:24:13.150Z,33.00
2023-01-13T23:26:42.353Z,38.25
2023-01-13T23:29:14.585Z,38.25
2023-01-13T23:31:43.320Z,43.00
2023-01-13T23:34:13.319Z,40.00
2023-01-13T23:36:43.418Z,35.00
2023-01-13T23:39:12.461Z,36.25
2023-01-13T23:41:41.126Z,45.00
2023-01-13T23:44:10.697Z,38.00
2023-01-13T23:46:40.837Z,32.25
2023-01-13T23:49:09.724Z,31.25
2023-01-13T23:51:38.323Z,37.25
2023-01-13T23:54:07.271Z,30.00
2023-01-13T23:56:39.408Z,42.00
2023-01-13T23:59:08.662Z,42.25
